Westlock, Canada
Current Conditions -  °F | °C
As of 10:00 AM on Thursday 30 Oct 2014 (Local Time) from CZVL Reporting Station
Haze Haze  
Wind Chill: 21°   Ceiling: 400
Heat Index: 32°   Visibility: 4mi
Dew Point: 32°   Wind: 16mph
Humidity: 100%   Direction: 140°SE
Pressure: 30.2"   Gusts: 23mph
Location:  54.15°N, 113.87°W
Report Text: CZVL 301600Z AUTO 14014G20KT 4SM BR OVC004 00/M00 A3020 RMK SLP256
Loading
Personal Weather Stations






























Interactive Weather Map
Tropical Storm Tracking
New forecast layout! Learn more

10-Day Weather Forecast

Advertisements
Track Severe Weather on mobile